sensor_id;sensor_type;location;lat;lon;timestamp;P1;durP1;ratioP1;P2;durP2;ratioP2
39540;SDS011;25219;52.244;21.006;2023-03-21T00:02:10;41.17;;;19.05;;
39540;SDS011;25219;52.244;21.006;2023-03-21T00:04:35;36.92;;;18.55;;
39540;SDS011;25219;52.244;21.006;2023-03-21T00:07:01;36.30;;;18.95;;
39540;SDS011;25219;52.244;21.006;2023-03-21T00:09:26;34.33;;;18.75;;
39540;SDS011;25219;52.244;21.006;2023-03-21T00:11:51;35.13;;;18.70;;
39540;SDS011;25219;52.244;21.006;2023-03-21T00:14:16;37.13;;;17.80;;
39540;SDS011;25219;52.244;21.006;2023-03-21T00:16:45;32.95;;;17.73;;
39540;SDS011;25219;52.244;21.006;2023-03-21T00:19:14;38.13;;;20.25;;
39540;SDS011;25219;52.244;21.006;2023-03-21T00:21:39;33.88;;;18.88;;
39540;SDS011;25219;52.244;21.006;2023-03-21T00:24:07;34.05;;;18.42;;
39540;SDS011;25219;52.244;21.006;2023-03-21T00:26:32;38.00;;;19.30;;
39540;SDS011;25219;52.244;21.006;2023-03-21T00:28:57;34.78;;;19.63;;
39540;SDS011;25219;52.244;21.006;2023-03-21T00:31:22;36.03;;;17.88;;
39540;SDS011;25219;52.244;21.006;2023-03-21T00:33:48;31.58;;;18.00;;
39540;SDS011;25219;52.244;21.006;2023-03-21T00:36:13;36.53;;;19.80;;
39540;SDS011;25219;52.244;21.006;2023-03-21T00:38:39;42.05;;;19.58;;
39540;SDS011;25219;52.244;21.006;2023-03-21T00:41:06;39.72;;;19.85;;
39540;SDS011;25219;52.244;21.006;2023-03-21T00:43:32;37.08;;;19.00;;
39540;SDS011;25219;52.244;21.006;2023-03-21T00:45:57;40.17;;;20.17;;
39540;SDS011;25219;52.244;21.006;2023-03-21T00:48:23;43.03;;;20.55;;
39540;SDS011;25219;52.244;21.006;2023-03-21T00:50:49;40.95;;;19.45;;
39540;SDS011;25219;52.244;21.006;2023-03-21T00:53:16;37.92;;;20.13;;
39540;SDS011;25219;52.244;21.006;2023-03-21T00:55:41;37.05;;;19.00;;
39540;SDS011;25219;52.244;21.006;2023-03-21T00:58:07;37.45;;;19.33;;
39540;SDS011;25219;52.244;21.006;2023-03-21T01:00:32;38.00;;;19.58;;
39540;SDS011;25219;52.244;21.006;2023-03-21T01:03:00;38.90;;;19.98;;
39540;SDS011;25219;52.244;21.006;2023-03-21T01:05:30;36.90;;;19.13;;
39540;SDS011;25219;52.244;21.006;2023-03-21T01:08:15;37.85;;;18.98;;
39540;SDS011;25219;52.244;21.006;2023-03-21T01:10:41;38.15;;;17.67;;
39540;SDS011;25219;52.244;21.006;2023-03-21T01:13:07;38.92;;;19.92;;
39540;SDS011;25219;52.244;21.006;2023-03-21T01:15:33;37.60;;;20.10;;
39540;SDS011;25219;52.244;21.006;2023-03-21T01:17:58;32.92;;;17.83;;
39540;SDS011;25219;52.244;21.006;2023-03-21T01:20:24;38.85;;;19.23;;
39540;SDS011;25219;52.244;21.006;2023-03-21T01:22:50;36.97;;;18.83;;
39540;SDS011;25219;52.244;21.006;2023-03-21T01:25:15;40.22;;;19.08;;
39540;SDS011;25219;52.244;21.006;2023-03-21T01:27:40;38.05;;;19.23;;
39540;SDS011;25219;52.244;21.006;2023-03-21T01:30:06;34.30;;;17.52;;
39540;SDS011;25219;52.244;21.006;2023-03-21T01:32:31;38.40;;;18.60;;
39540;SDS011;25219;52.244;21.006;2023-03-21T01:34:57;35.47;;;18.10;;
39540;SDS011;25219;52.244;21.006;2023-03-21T01:37:22;38.03;;;18.60;;
39540;SDS011;25219;52.244;21.006;2023-03-21T01:39:50;37.58;;;19.13;;
39540;SDS011;25219;52.244;21.006;2023-03-21T01:42:15;36.78;;;18.50;;
39540;SDS011;25219;52.244;21.006;2023-03-21T01:44:57;39.80;;;19.05;;
39540;SDS011;25219;52.244;21.006;2023-03-21T01:47:23;40.45;;;20.50;;
39540;SDS011;25219;52.244;21.006;2023-03-21T01:49:49;41.58;;;21.30;;
39540;SDS011;25219;52.244;21.006;2023-03-21T01:52:17;38.42;;;19.48;;
39540;SDS011;25219;52.244;21.006;2023-03-21T01:54:43;38.13;;;17.80;;
39540;SDS011;25219;52.244;21.006;2023-03-21T01:57:11;38.63;;;19.02;;
39540;SDS011;25219;52.244;21.006;2023-03-21T01:59:42;36.13;;;18.25;;
39540;SDS011;25219;52.244;21.006;2023-03-21T02:02:16;40.13;;;17.67;;
39540;SDS011;25219;52.244;21.006;2023-03-21T02:04:44;35.75;;;17.17;;
39540;SDS011;25219;52.244;21.006;2023-03-21T02:07:14;36.08;;;19.02;;
39540;SDS011;25219;52.244;21.006;2023-03-21T02:09:43;37.00;;;18.10;;
39540;SDS011;25219;52.244;21.006;2023-03-21T02:12:10;33.47;;;18.40;;
39540;SDS011;25219;52.244;21.006;2023-03-21T02:14:35;30.25;;;17.48;;
39540;SDS011;25219;52.244;21.006;2023-03-21T02:27:14;30.70;;;17.40;;
39540;SDS011;25219;52.244;21.006;2023-03-21T02:35:05;30.98;;;18.27;;
39540;SDS011;25219;52.244;21.006;2023-03-21T02:45:20;31.23;;;16.35;;
39540;SDS011;25219;52.244;21.006;2023-03-21T02:52:45;28.38;;;15.80;;
39540;SDS011;25219;52.244;21.006;2023-03-21T02:55:13;29.85;;;15.82;;
39540;SDS011;25219;52.244;21.006;2023-03-21T02:57:42;34.58;;;16.83;;
39540;SDS011;25219;52.244;21.006;2023-03-21T03:00:08;27.38;;;14.85;;
39540;SDS011;25219;52.244;21.006;2023-03-21T03:02:36;30.27;;;15.70;;
39540;SDS011;25219;52.244;21.006;2023-03-21T03:05:09;26.45;;;16.08;;
39540;SDS011;25219;52.244;21.006;2023-03-21T03:07:39;29.48;;;16.05;;
39540;SDS011;25219;52.244;21.006;2023-03-21T03:25:19;28.08;;;15.63;;
39540;SDS011;25219;52.244;21.006;2023-03-21T03:27:46;27.60;;;14.38;;
39540;SDS011;25219;52.244;21.006;2023-03-21T03:30:13;27.58;;;15.50;;
39540;SDS011;25219;52.244;21.006;2023-03-21T03:32:47;25.60;;;14.15;;
39540;SDS011;25219;52.244;21.006;2023-03-21T03:35:14;27.33;;;14.32;;
39540;SDS011;25219;52.244;21.006;2023-03-21T03:37:40;28.42;;;14.68;;
39540;SDS011;25219;52.244;21.006;2023-03-21T03:42:53;28.90;;;15.20;;
39540;SDS011;25219;52.244;21.006;2023-03-21T03:45:18;29.75;;;15.13;;
39540;SDS011;25219;52.244;21.006;2023-03-21T03:47:58;28.20;;;15.38;;
39540;SDS011;25219;52.244;21.006;2023-03-21T03:50:35;27.73;;;15.15;;
39540;SDS011;25219;52.244;21.006;2023-03-21T03:53:04;28.40;;;14.57;;
39540;SDS011;25219;52.244;21.006;2023-03-21T03:55:30;23.13;;;13.57;;
39540;SDS011;25219;52.244;21.006;2023-03-21T03:57:58;27.90;;;15.00;;
39540;SDS011;25219;52.244;21.006;2023-03-21T04:00:24;27.70;;;14.60;;
39540;SDS011;25219;52.244;21.006;2023-03-21T04:02:51;26.33;;;13.95;;
39540;SDS011;25219;52.244;21.006;2023-03-21T04:05:16;29.45;;;15.10;;
39540;SDS011;25219;52.244;21.006;2023-03-21T04:07:45;25.00;;;14.20;;
39540;SDS011;25219;52.244;21.006;2023-03-21T04:10:10;25.92;;;14.23;;
39540;SDS011;25219;52.244;21.006;2023-03-21T04:12:36;27.15;;;14.07;;
39540;SDS011;25219;52.244;21.006;2023-03-21T04:15:01;30.57;;;15.13;;
39540;SDS011;25219;52.244;21.006;2023-03-21T04:17:26;25.50;;;13.05;;
39540;SDS011;25219;52.244;21.006;2023-03-21T04:19:51;22.73;;;12.85;;
39540;SDS011;25219;52.244;21.006;2023-03-21T04:22:17;26.58;;;15.35;;
39540;SDS011;25219;52.244;21.006;2023-03-21T04:24:42;28.45;;;14.75;;
39540;SDS011;25219;52.244;21.006;2023-03-21T04:27:08;25.55;;;14.15;;
39540;SDS011;25219;52.244;21.006;2023-03-21T04:29:33;23.02;;;12.68;;
39540;SDS011;25219;52.244;21.006;2023-03-21T04:31:59;25.67;;;13.82;;
39540;SDS011;25219;52.244;21.006;2023-03-21T04:34:25;23.63;;;13.35;;
39540;SDS011;25219;52.244;21.006;2023-03-21T04:36:52;26.33;;;14.80;;
39540;SDS011;25219;52.244;21.006;2023-03-21T04:39:18;23.73;;;13.02;;
39540;SDS011;25219;52.244;21.006;2023-03-21T04:41:44;26.73;;;14.20;;
39540;SDS011;25219;52.244;21.006;2023-03-21T04:44:10;28.63;;;14.18;;
39540;SDS011;25219;52.244;21.006;2023-03-21T04:46:36;21.15;;;12.52;;
39540;SDS011;25219;52.244;21.006;2023-03-21T04:49:01;26.65;;;14.45;;
39540;SDS011;25219;52.244;21.006;2023-03-21T04:51:26;26.23;;;14.35;;
39540;SDS011;25219;52.244;21.006;2023-03-21T04:53:52;24.80;;;13.15;;
39540;SDS011;25219;52.244;21.006;2023-03-21T04:56:22;29.02;;;15.40;;
39540;SDS011;25219;52.244;21.006;2023-03-21T04:58:48;25.30;;;13.27;;
39540;SDS011;25219;52.244;21.006;2023-03-21T05:01:14;22.40;;;12.63;;
39540;SDS011;25219;52.244;21.006;2023-03-21T05:03:44;20.70;;;12.27;;
39540;SDS011;25219;52.244;21.006;2023-03-21T05:06:09;20.40;;;12.77;;
39540;SDS011;25219;52.244;21.006;2023-03-21T05:08:35;21.00;;;11.70;;
39540;SDS011;25219;52.244;21.006;2023-03-21T05:11:01;24.67;;;12.32;;
39540;SDS011;25219;52.244;21.006;2023-03-21T05:13:26;21.15;;;12.27;;
39540;SDS011;25219;52.244;21.006;2023-03-21T05:15:51;20.05;;;10.88;;
39540;SDS011;25219;52.244;21.006;2023-03-21T05:18:16;20.38;;;11.10;;
39540;SDS011;25219;52.244;21.006;2023-03-21T05:20:48;21.60;;;11.30;;
39540;SDS011;25219;52.244;21.006;2023-03-21T05:23:17;21.17;;;11.60;;
39540;SDS011;25219;52.244;21.006;2023-03-21T05:25:42;20.57;;;11.23;;
39540;SDS011;25219;52.244;21.006;2023-03-21T05:28:08;17.80;;;10.57;;
39540;SDS011;25219;52.244;21.006;2023-03-21T05:30:33;18.55;;;10.88;;
39540;SDS011;25219;52.244;21.006;2023-03-21T05:32:58;23.25;;;11.55;;
39540;SDS011;25219;52.244;21.006;2023-03-21T05:35:24;20.83;;;11.50;;
39540;SDS011;25219;52.244;21.006;2023-03-21T05:37:50;18.05;;;10.75;;
39540;SDS011;25219;52.244;21.006;2023-03-21T05:40:15;19.45;;;10.60;;
39540;SDS011;25219;52.244;21.006;2023-03-21T05:42:41;18.50;;;10.65;;
39540;SDS011;25219;52.244;21.006;2023-03-21T05:45:06;19.75;;;11.13;;
39540;SDS011;25219;52.244;21.006;2023-03-21T05:47:32;17.63;;;10.13;;
39540;SDS011;25219;52.244;21.006;2023-03-21T05:49:57;21.60;;;10.00;;
39540;SDS011;25219;52.244;21.006;2023-03-21T05:52:22;15.45;;;9.50;;
39540;SDS011;25219;52.244;21.006;2023-03-21T05:54:48;19.92;;;10.10;;
39540;SDS011;25219;52.244;21.006;2023-03-21T05:57:13;20.33;;;10.90;;
39540;SDS011;25219;52.244;21.006;2023-03-21T05:59:38;15.80;;;10.18;;
39540;SDS011;25219;52.244;21.006;2023-03-21T06:02:04;22.63;;;10.93;;
39540;SDS011;25219;52.244;21.006;2023-03-21T06:04:29;18.88;;;10.23;;
39540;SDS011;25219;52.244;21.006;2023-03-21T06:06:55;18.80;;;10.45;;
39540;SDS011;25219;52.244;21.006;2023-03-21T06:09:20;19.10;;;10.88;;
39540;SDS011;25219;52.244;21.006;2023-03-21T06:11:47;15.50;;;10.05;;
39540;SDS011;25219;52.244;21.006;2023-03-21T06:14:13;15.98;;;9.85;;
39540;SDS011;25219;52.244;21.006;2023-03-21T06:16:38;16.95;;;10.27;;
39540;SDS011;25219;52.244;21.006;2023-03-21T06:19:03;18.17;;;10.07;;
39540;SDS011;25219;52.244;21.006;2023-03-21T06:21:28;20.50;;;9.82;;
39540;SDS011;25219;52.244;21.006;2023-03-21T06:23:54;16.35;;;9.52;;
39540;SDS011;25219;52.244;21.006;2023-03-21T06:26:19;14.48;;;8.85;;
39540;SDS011;25219;52.244;21.006;2023-03-21T06:28:47;15.52;;;9.35;;
39540;SDS011;25219;52.244;21.006;2023-03-21T06:31:12;13.95;;;9.20;;
39540;SDS011;25219;52.244;21.006;2023-03-21T06:33:37;14.65;;;8.40;;
39540;SDS011;25219;52.244;21.006;2023-03-21T06:36:03;15.10;;;9.48;;
39540;SDS011;25219;52.244;21.006;2023-03-21T06:38:28;16.95;;;8.93;;
39540;SDS011;25219;52.244;21.006;2023-03-21T06:40:54;13.05;;;8.40;;
39540;SDS011;25219;52.244;21.006;2023-03-21T06:43:19;16.40;;;9.27;;
39540;SDS011;25219;52.244;21.006;2023-03-21T06:45:44;14.07;;;8.93;;
39540;SDS011;25219;52.244;21.006;2023-03-21T06:48:10;15.45;;;9.15;;
39540;SDS011;25219;52.244;21.006;2023-03-21T06:50:35;13.73;;;8.75;;
39540;SDS011;25219;52.244;21.006;2023-03-21T06:53:01;17.20;;;9.05;;
39540;SDS011;25219;52.244;21.006;2023-03-21T06:55:26;17.92;;;9.30;;
39540;SDS011;25219;52.244;21.006;2023-03-21T06:57:53;14.45;;;8.65;;
39540;SDS011;25219;52.244;21.006;2023-03-21T07:00:18;14.40;;;7.68;;
39540;SDS011;25219;52.244;21.006;2023-03-21T07:02:44;14.90;;;8.25;;
39540;SDS011;25219;52.244;21.006;2023-03-21T07:05:10;13.18;;;8.15;;
39540;SDS011;25219;52.244;21.006;2023-03-21T07:07:35;15.07;;;8.32;;
39540;SDS011;25219;52.244;21.006;2023-03-21T07:10:01;15.70;;;8.25;;
39540;SDS011;25219;52.244;21.006;2023-03-21T07:12:26;12.75;;;8.27;;
39540;SDS011;25219;52.244;21.006;2023-03-21T07:14:51;11.55;;;6.97;;
39540;SDS011;25219;52.244;21.006;2023-03-21T07:17:17;12.20;;;6.93;;
39540;SDS011;25219;52.244;21.006;2023-03-21T07:19:42;10.93;;;7.20;;
39540;SDS011;25219;52.244;21.006;2023-03-21T07:22:07;12.95;;;7.30;;
39540;SDS011;25219;52.244;21.006;2023-03-21T07:24:32;12.27;;;7.00;;
39540;SDS011;25219;52.244;21.006;2023-03-21T07:26:58;14.37;;;7.93;;
39540;SDS011;25219;52.244;21.006;2023-03-21T07:29:23;11.00;;;6.75;;
39540;SDS011;25219;52.244;21.006;2023-03-21T07:31:49;10.45;;;6.72;;
39540;SDS011;25219;52.244;21.006;2023-03-21T07:34:15;10.85;;;6.53;;
39540;SDS011;25219;52.244;21.006;2023-03-21T07:36:41;11.00;;;7.18;;
39540;SDS011;25219;52.244;21.006;2023-03-21T07:39:07;11.10;;;6.57;;
39540;SDS011;25219;52.244;21.006;2023-03-21T07:41:32;13.05;;;7.47;;
39540;SDS011;25219;52.244;21.006;2023-03-21T07:43:57;10.45;;;6.88;;
39540;SDS011;25219;52.244;21.006;2023-03-21T07:46:23;12.50;;;6.97;;
39540;SDS011;25219;52.244;21.006;2023-03-21T07:48:48;10.63;;;6.90;;
39540;SDS011;25219;52.244;21.006;2023-03-21T07:51:13;11.15;;;6.68;;
39540;SDS011;25219;52.244;21.006;2023-03-21T07:53:39;10.82;;;6.97;;
39540;SDS011;25219;52.244;21.006;2023-03-21T07:56:06;11.23;;;6.80;;
39540;SDS011;25219;52.244;21.006;2023-03-21T07:58:31;12.88;;;7.13;;
39540;SDS011;25219;52.244;21.006;2023-03-21T08:00:58;11.32;;;7.20;;
39540;SDS011;25219;52.244;21.006;2023-03-21T08:03:23;10.57;;;6.20;;
39540;SDS011;25219;52.244;21.006;2023-03-21T08:05:50;9.90;;;6.07;;
39540;SDS011;25219;52.244;21.006;2023-03-21T08:08:16;9.88;;;6.60;;
39540;SDS011;25219;52.244;21.006;2023-03-21T08:10:41;11.65;;;6.07;;
39540;SDS011;25219;52.244;21.006;2023-03-21T08:13:08;8.68;;;5.32;;
39540;SDS011;25219;52.244;21.006;2023-03-21T08:15:33;9.45;;;6.18;;
39540;SDS011;25219;52.244;21.006;2023-03-21T08:17:59;8.57;;;5.82;;
39540;SDS011;25219;52.244;21.006;2023-03-21T08:20:24;9.95;;;6.15;;
39540;SDS011;25219;52.244;21.006;2023-03-21T08:22:50;11.32;;;6.43;;
39540;SDS011;25219;52.244;21.006;2023-03-21T08:25:16;15.10;;;7.65;;
39540;SDS011;25219;52.244;21.006;2023-03-21T08:27:42;10.63;;;6.15;;
39540;SDS011;25219;52.244;21.006;2023-03-21T08:30:08;9.35;;;6.10;;
39540;SDS011;25219;52.244;21.006;2023-03-21T08:32:34;10.13;;;5.90;;
39540;SDS011;25219;52.244;21.006;2023-03-21T08:35:04;9.93;;;6.20;;
39540;SDS011;25219;52.244;21.006;2023-03-21T08:37:29;9.10;;;5.90;;
39540;SDS011;25219;52.244;21.006;2023-03-21T08:39:55;10.00;;;6.25;;
39540;SDS011;25219;52.244;21.006;2023-03-21T08:42:20;10.40;;;6.63;;
39540;SDS011;25219;52.244;21.006;2023-03-21T08:44:46;10.52;;;6.72;;
39540;SDS011;25219;52.244;21.006;2023-03-21T08:47:12;8.52;;;6.10;;
39540;SDS011;25219;52.244;21.006;2023-03-21T08:49:37;9.13;;;6.05;;
39540;SDS011;25219;52.244;21.006;2023-03-21T08:52:03;9.00;;;6.35;;
39540;SDS011;25219;52.244;21.006;2023-03-21T08:54:28;9.07;;;5.22;;
39540;SDS011;25219;52.244;21.006;2023-03-21T08:56:53;7.70;;;5.25;;
39540;SDS011;25219;52.244;21.006;2023-03-21T08:59:19;8.10;;;5.10;;
39540;SDS011;25219;52.244;21.006;2023-03-21T09:01:44;8.57;;;5.07;;
39540;SDS011;25219;52.244;21.006;2023-03-21T09:04:11;8.13;;;5.03;;
39540;SDS011;25219;52.244;21.006;2023-03-21T09:06:37;6.25;;;4.85;;
39540;SDS011;25219;52.244;21.006;2023-03-21T09:09:02;8.10;;;5.63;;
39540;SDS011;25219;52.244;21.006;2023-03-21T09:11:30;8.93;;;5.28;;
39540;SDS011;25219;52.244;21.006;2023-03-21T09:13:55;7.53;;;5.25;;
39540;SDS011;25219;52.244;21.006;2023-03-21T09:16:20;8.80;;;4.60;;
39540;SDS011;25219;52.244;21.006;2023-03-21T09:18:45;6.38;;;4.47;;
39540;SDS011;25219;52.244;21.006;2023-03-21T09:21:16;7.07;;;4.68;;
39540;SDS011;25219;52.244;21.006;2023-03-21T09:23:42;8.40;;;5.65;;
39540;SDS011;25219;52.244;21.006;2023-03-21T09:26:09;8.77;;;5.45;;
39540;SDS011;25219;52.244;21.006;2023-03-21T09:28:34;9.15;;;5.97;;
39540;SDS011;25219;52.244;21.006;2023-03-21T09:31:01;8.13;;;5.55;;
39540;SDS011;25219;52.244;21.006;2023-03-21T09:33:29;8.13;;;5.32;;
39540;SDS011;25219;52.244;21.006;2023-03-21T09:35:55;7.25;;;5.20;;
39540;SDS011;25219;52.244;21.006;2023-03-21T09:38:24;7.88;;;5.18;;
39540;SDS011;25219;52.244;21.006;2023-03-21T09:46:09;7.95;;;5.50;;
39540;SDS011;25219;52.244;21.006;2023-03-21T09:51:04;10.15;;;5.40;;
39540;SDS011;25219;52.244;21.006;2023-03-21T09:53:34;7.35;;;4.95;;
39540;SDS011;25219;52.244;21.006;2023-03-21T09:56:01;8.13;;;5.30;;
39540;SDS011;25219;52.244;21.006;2023-03-21T09:58:29;8.40;;;5.57;;
39540;SDS011;25219;52.244;21.006;2023-03-21T10:01:07;9.98;;;5.63;;
39540;SDS011;25219;52.244;21.006;2023-03-21T10:03:34;7.43;;;4.95;;
39540;SDS011;25219;52.244;21.006;2023-03-21T10:06:04;7.25;;;4.85;;
39540;SDS011;25219;52.244;21.006;2023-03-21T10:08:33;7.18;;;4.75;;
39540;SDS011;25219;52.244;21.006;2023-03-21T10:11:22;8.95;;;5.75;;
39540;SDS011;25219;52.244;21.006;2023-03-21T10:16:31;8.85;;;5.82;;
39540;SDS011;25219;52.244;21.006;2023-03-21T10:18:59;8.93;;;6.00;;
39540;SDS011;25219;52.244;21.006;2023-03-21T10:21:27;11.18;;;6.50;;
39540;SDS011;25219;52.244;21.006;2023-03-21T10:23:53;11.02;;;6.70;;
39540;SDS011;25219;52.244;21.006;2023-03-21T10:26:19;14.02;;;6.30;;
39540;SDS011;25219;52.244;21.006;2023-03-21T10:28:45;9.63;;;5.72;;
39540;SDS011;25219;52.244;21.006;2023-03-21T10:31:13;9.20;;;4.80;;
39540;SDS011;25219;52.244;21.006;2023-03-21T10:33:43;6.18;;;3.90;;
39540;SDS011;25219;52.244;21.006;2023-03-21T10:36:16;8.38;;;4.38;;
39540;SDS011;25219;52.244;21.006;2023-03-21T10:38:45;7.93;;;3.97;;
39540;SDS011;25219;52.244;21.006;2023-03-21T10:41:11;8.77;;;3.83;;
39540;SDS011;25219;52.244;21.006;2023-03-21T10:43:37;7.22;;;4.00;;
39540;SDS011;25219;52.244;21.006;2023-03-21T10:46:18;6.63;;;3.85;;
39540;SDS011;25219;52.244;21.006;2023-03-21T10:48:51;7.07;;;4.13;;
39540;SDS011;25219;52.244;21.006;2023-03-21T10:51:18;9.32;;;4.00;;
39540;SDS011;25219;52.244;21.006;2023-03-21T10:53:45;6.13;;;3.88;;
39540;SDS011;25219;52.244;21.006;2023-03-21T10:56:11;6.10;;;4.53;;
39540;SDS011;25219;52.244;21.006;2023-03-21T10:58:43;7.95;;;4.55;;
39540;SDS011;25219;52.244;21.006;2023-03-21T11:01:10;5.72;;;3.63;;
39540;SDS011;25219;52.244;21.006;2023-03-21T11:03:39;6.57;;;3.60;;
39540;SDS011;25219;52.244;21.006;2023-03-21T11:11:36;8.50;;;3.63;;
39540;SDS011;25219;52.244;21.006;2023-03-21T11:14:02;5.72;;;3.80;;
39540;SDS011;25219;52.244;21.006;2023-03-21T11:16:43;5.72;;;3.67;;
39540;SDS011;25219;52.244;21.006;2023-03-21T11:19:18;5.70;;;3.80;;
39540;SDS011;25219;52.244;21.006;2023-03-21T11:21:44;5.65;;;3.80;;
39540;SDS011;25219;52.244;21.006;2023-03-21T11:24:11;5.45;;;4.15;;
39540;SDS011;25219;52.244;21.006;2023-03-21T11:26:37;6.72;;;4.40;;
39540;SDS011;25219;52.244;21.006;2023-03-21T11:29:09;5.70;;;4.25;;
39540;SDS011;25219;52.244;21.006;2023-03-21T11:31:38;5.78;;;4.40;;
39540;SDS011;25219;52.244;21.006;2023-03-21T11:34:07;10.05;;;4.63;;
39540;SDS011;25219;52.244;21.006;2023-03-21T11:36:36;5.90;;;3.70;;
39540;SDS011;25219;52.244;21.006;2023-03-21T11:39:17;5.90;;;4.07;;
39540;SDS011;25219;52.244;21.006;2023-03-21T11:41:50;5.88;;;3.92;;
39540;SDS011;25219;52.244;21.006;2023-03-21T11:44:29;6.07;;;4.43;;
39540;SDS011;25219;52.244;21.006;2023-03-21T11:46:55;6.55;;;4.63;;
39540;SDS011;25219;52.244;21.006;2023-03-21T11:49:20;6.95;;;5.00;;
39540;SDS011;25219;52.244;21.006;2023-03-21T11:56:47;10.27;;;4.55;;
39540;SDS011;25219;52.244;21.006;2023-03-21T12:04:30;6.72;;;4.70;;
39540;SDS011;25219;52.244;21.006;2023-03-21T12:12:08;6.33;;;4.60;;
39540;SDS011;25219;52.244;21.006;2023-03-21T12:19:42;5.55;;;4.25;;
39540;SDS011;25219;52.244;21.006;2023-03-21T12:24:54;5.95;;;3.95;;
39540;SDS011;25219;52.244;21.006;2023-03-21T12:27:35;9.75;;;4.95;;
39540;SDS011;25219;52.244;21.006;2023-03-21T12:32:50;6.60;;;4.78;;
39540;SDS011;25219;52.244;21.006;2023-03-21T12:40:30;5.63;;;4.22;;
39540;SDS011;25219;52.244;21.006;2023-03-21T12:46:01;6.03;;;4.43;;
39540;SDS011;25219;52.244;21.006;2023-03-21T12:48:36;5.80;;;4.70;;
39540;SDS011;25219;52.244;21.006;2023-03-21T12:51:06;5.20;;;3.92;;
39540;SDS011;25219;52.244;21.006;2023-03-21T12:56:19;5.53;;;3.97;;
39540;SDS011;25219;52.244;21.006;2023-03-21T12:58:49;7.65;;;4.20;;
39540;SDS011;25219;52.244;21.006;2023-03-21T13:01:16;7.15;;;4.18;;
39540;SDS011;25219;52.244;21.006;2023-03-21T13:03:43;5.38;;;4.10;;
39540;SDS011;25219;52.244;21.006;2023-03-21T13:06:14;6.03;;;4.00;;
39540;SDS011;25219;52.244;21.006;2023-03-21T13:08:46;6.25;;;3.40;;
39540;SDS011;25219;52.244;21.006;2023-03-21T13:11:14;4.28;;;3.35;;
39540;SDS011;25219;52.244;21.006;2023-03-21T13:23:37;5.47;;;3.83;;
39540;SDS011;25219;52.244;21.006;2023-03-21T13:26:03;6.93;;;4.18;;
39540;SDS011;25219;52.244;21.006;2023-03-21T13:28:33;6.28;;;3.95;;
39540;SDS011;25219;52.244;21.006;2023-03-21T13:33:47;5.65;;;3.80;;
39540;SDS011;25219;52.244;21.006;2023-03-21T13:36:14;6.20;;;4.25;;
39540;SDS011;25219;52.244;21.006;2023-03-21T13:38:40;7.78;;;4.43;;
39540;SDS011;25219;52.244;21.006;2023-03-21T13:41:16;7.68;;;5.05;;
39540;SDS011;25219;52.244;21.006;2023-03-21T13:43:43;7.53;;;4.65;;
39540;SDS011;25219;52.244;21.006;2023-03-21T13:46:15;7.63;;;4.95;;
39540;SDS011;25219;52.244;21.006;2023-03-21T13:54:00;6.72;;;4.22;;
39540;SDS011;25219;52.244;21.006;2023-03-21T13:56:25;6.20;;;4.30;;
39540;SDS011;25219;52.244;21.006;2023-03-21T13:58:52;5.90;;;4.22;;
39540;SDS011;25219;52.244;21.006;2023-03-21T14:03:44;8.68;;;6.25;;
39540;SDS011;25219;52.244;21.006;2023-03-21T14:06:11;9.05;;;4.35;;
39540;SDS011;25219;52.244;21.006;2023-03-21T14:08:36;5.80;;;4.50;;
39540;SDS011;25219;52.244;21.006;2023-03-21T14:11:03;6.93;;;4.63;;
39540;SDS011;25219;52.244;21.006;2023-03-21T14:13:29;7.18;;;4.22;;
39540;SDS011;25219;52.244;21.006;2023-03-21T14:18:54;5.95;;;4.40;;
39540;SDS011;25219;52.244;21.006;2023-03-21T14:21:21;9.23;;;6.03;;
39540;SDS011;25219;52.244;21.006;2023-03-21T14:23:54;7.20;;;5.57;;
39540;SDS011;25219;52.244;21.006;2023-03-21T14:26:19;8.40;;;4.57;;
39540;SDS011;25219;52.244;21.006;2023-03-21T14:28:46;8.13;;;4.20;;
39540;SDS011;25219;52.244;21.006;2023-03-21T14:31:13;7.95;;;4.80;;
39540;SDS011;25219;52.244;21.006;2023-03-21T14:33:41;8.45;;;4.32;;
39540;SDS011;25219;52.244;21.006;2023-03-21T14:36:14;7.57;;;4.10;;
39540;SDS011;25219;52.244;21.006;2023-03-21T14:38:39;5.90;;;4.07;;
39540;SDS011;25219;52.244;21.006;2023-03-21T14:41:05;6.55;;;4.47;;
39540;SDS011;25219;52.244;21.006;2023-03-21T14:43:43;6.50;;;3.70;;
39540;SDS011;25219;52.244;21.006;2023-03-21T14:46:11;7.47;;;3.85;;
39540;SDS011;25219;52.244;21.006;2023-03-21T14:48:36;7.13;;;4.18;;
39540;SDS011;25219;52.244;21.006;2023-03-21T14:51:03;6.97;;;4.60;;
39540;SDS011;25219;52.244;21.006;2023-03-21T14:53:30;6.75;;;3.60;;
39540;SDS011;25219;52.244;21.006;2023-03-21T14:55:58;6.43;;;4.50;;
39540;SDS011;25219;52.244;21.006;2023-03-21T14:58:24;8.23;;;4.20;;
39540;SDS011;25219;52.244;21.006;2023-03-21T15:00:50;5.32;;;3.60;;
39540;SDS011;25219;52.244;21.006;2023-03-21T15:03:17;6.97;;;3.72;;
39540;SDS011;25219;52.244;21.006;2023-03-21T15:05:42;8.57;;;3.83;;
39540;SDS011;25219;52.244;21.006;2023-03-21T15:08:13;12.23;;;4.25;;
39540;SDS011;25219;52.244;21.006;2023-03-21T15:10:39;6.90;;;3.60;;
39540;SDS011;25219;52.244;21.006;2023-03-21T15:13:12;6.70;;;3.75;;
39540;SDS011;25219;52.244;21.006;2023-03-21T15:15:38;6.85;;;3.65;;
39540;SDS011;25219;52.244;21.006;2023-03-21T15:18:04;8.60;;;3.38;;
39540;SDS011;25219;52.244;21.006;2023-03-21T15:20:31;9.65;;;3.60;;
39540;SDS011;25219;52.244;21.006;2023-03-21T15:22:58;4.95;;;3.67;;
39540;SDS011;25219;52.244;21.006;2023-03-21T15:25:27;4.80;;;3.60;;
39540;SDS011;25219;52.244;21.006;2023-03-21T15:27:53;6.75;;;4.03;;
39540;SDS011;25219;52.244;21.006;2023-03-21T15:30:28;5.70;;;3.78;;
39540;SDS011;25219;52.244;21.006;2023-03-21T15:32:55;6.13;;;3.67;;
39540;SDS011;25219;52.244;21.006;2023-03-21T15:35:28;5.55;;;3.78;;
39540;SDS011;25219;52.244;21.006;2023-03-21T15:37:56;8.45;;;4.05;;
39540;SDS011;25219;52.244;21.006;2023-03-21T15:40:24;4.80;;;3.53;;
39540;SDS011;25219;52.244;21.006;2023-03-21T15:42:50;7.28;;;4.20;;
39540;SDS011;25219;52.244;21.006;2023-03-21T15:50:24;5.28;;;3.67;;
39540;SDS011;25219;52.244;21.006;2023-03-21T15:52:50;6.05;;;3.97;;
39540;SDS011;25219;52.244;21.006;2023-03-21T15:55:20;5.40;;;3.55;;
39540;SDS011;25219;52.244;21.006;2023-03-21T15:57:50;6.82;;;3.22;;
39540;SDS011;25219;52.244;21.006;2023-03-21T16:02:43;5.78;;;4.10;;
39540;SDS011;25219;52.244;21.006;2023-03-21T16:05:25;5.40;;;3.63;;
39540;SDS011;25219;52.244;21.006;2023-03-21T16:07:51;4.63;;;3.53;;
39540;SDS011;25219;52.244;21.006;2023-03-21T16:10:28;6.20;;;3.90;;
39540;SDS011;25219;52.244;21.006;2023-03-21T16:12:55;6.57;;;4.38;;
39540;SDS011;25219;52.244;21.006;2023-03-21T16:15:21;8.88;;;5.18;;
39540;SDS011;25219;52.244;21.006;2023-03-21T16:17:47;6.25;;;4.03;;
39540;SDS011;25219;52.244;21.006;2023-03-21T16:20:16;8.00;;;4.45;;
39540;SDS011;25219;52.244;21.006;2023-03-21T16:22:46;6.65;;;4.22;;
39540;SDS011;25219;52.244;21.006;2023-03-21T16:25:12;9.32;;;4.75;;
39540;SDS011;25219;52.244;21.006;2023-03-21T16:27:37;9.00;;;5.15;;
39540;SDS011;25219;52.244;21.006;2023-03-21T16:30:02;8.38;;;4.38;;
39540;SDS011;25219;52.244;21.006;2023-03-21T16:32:28;7.85;;;4.53;;
39540;SDS011;25219;52.244;21.006;2023-03-21T16:34:53;9.73;;;4.90;;